sensor_id;sensor_type;location;lat;lon;timestamp;pressure;altitude;pressure_sealevel;temperature;humidity
69624;BME280;56843;52.020;5.670;2023-02-07T00:00:30;103822.47;;;9.73;61.54
69624;BME280;56843;52.020;5.670;2023-02-07T00:02:00;103826.97;;;9.73;61.45
69624;BME280;56843;52.020;5.670;2023-02-07T00:03:31;103820.63;;;9.74;61.33
69624;BME280;56843;52.020;5.670;2023-02-07T00:05:01;103818.97;;;9.73;61.55
69624;BME280;56843;52.020;5.670;2023-02-07T00:06:34;103815.28;;;9.74;61.36
69624;BME280;56843;52.020;5.670;2023-02-07T00:08:05;103820.84;;;9.72;61.54
69624;BME280;56843;52.020;5.670;2023-02-07T00:09:36;103820.03;;;9.72;61.60
69624;BME280;56843;52.020;5.670;2023-02-07T00:11:09;103827.81;;;9.73;61.64
69624;BME280;56843;52.020;5.670;2023-02-07T00:12:40;103829.66;;;9.73;61.56
69624;BME280;56843;52.020;5.670;2023-02-07T00:14:11;103821.66;;;9.73;61.66
69624;BME280;56843;52.020;5.670;2023-02-07T00:15:42;103825.94;;;9.74;61.54
69624;BME280;56843;52.020;5.670;2023-02-07T00:17:12;103811.78;;;9.73;61.50
69624;BME280;56843;52.020;5.670;2023-02-07T00:18:42;103812.81;;;9.72;61.73
69624;BME280;56843;52.020;5.670;2023-02-07T00:20:13;103809.94;;;9.74;61.59
69624;BME280;56843;52.020;5.670;2023-02-07T00:21:44;103815.28;;;9.74;61.67
69624;BME280;56843;52.020;5.670;2023-02-07T00:23:14;103815.28;;;9.74;61.61
69624;BME280;56843;52.020;5.670;2023-02-07T00:24:45;103810.97;;;9.73;61.60
69624;BME280;56843;52.020;5.670;2023-02-07T00:26:16;103808.31;;;9.73;61.75
69624;BME280;56843;52.020;5.670;2023-02-07T00:27:48;103805.63;;;9.73;61.78
69624;BME280;56843;52.020;5.670;2023-02-07T00:29:20;103802.97;;;9.73;61.67
69624;BME280;56843;52.020;5.670;2023-02-07T00:31:01;103809.94;;;9.74;61.72
69624;BME280;56843;52.020;5.670;2023-02-07T00:32:32;103810.41;;;9.71;61.87
69624;BME280;56843;52.020;5.670;2023-02-07T00:34:05;103802.97;;;9.73;61.70
69624;BME280;56843;52.020;5.670;2023-02-07T00:35:36;103809.38;;;9.72;61.88
69624;BME280;56843;52.020;5.670;2023-02-07T00:37:09;103799.75;;;9.71;61.78
69624;BME280;56843;52.020;5.670;2023-02-07T00:38:40;103813.63;;;9.73;61.94
69624;BME280;56843;52.020;5.670;2023-02-07T00:40:10;103800.28;;;9.73;61.84
69624;BME280;56843;52.020;5.670;2023-02-07T00:41:42;103808.31;;;9.73;61.80
69624;BME280;56843;52.020;5.670;2023-02-07T00:43:13;103806.44;;;9.73;61.91
69624;BME280;56843;52.020;5.670;2023-02-07T00:44:44;103815.75;;;9.71;61.92
69624;BME280;56843;52.020;5.670;2023-02-07T00:46:15;103806.69;;;9.72;61.88
69624;BME280;56843;52.020;5.670;2023-02-07T00:47:46;103812.03;;;9.72;61.92
69624;BME280;56843;52.020;5.670;2023-02-07T00:49:16;103807.75;;;9.71;61.87
69624;BME280;56843;52.020;5.670;2023-02-07T00:50:47;103814.94;;;9.70;62.01
69624;BME280;56843;52.020;5.670;2023-02-07T00:52:17;103813.09;;;9.71;62.01
69624;BME280;56843;52.020;5.670;2023-02-07T00:53:48;103809.59;;;9.70;62.40
69624;BME280;56843;52.020;5.670;2023-02-07T00:55:19;103799.75;;;9.71;61.97
69624;BME280;56843;52.020;5.670;2023-02-07T00:56:49;103796.25;;;9.70;62.13
69624;BME280;56843;52.020;5.670;2023-02-07T00:58:20;103795.44;;;9.70;62.03
69624;BME280;56843;52.020;5.670;2023-02-07T00:59:51;103800.56;;;9.71;62.06
69624;BME280;56843;52.020;5.670;2023-02-07T01:01:22;103806.69;;;9.72;62.01
69624;BME280;56843;52.020;5.670;2023-02-07T01:02:53;103796.25;;;9.70;62.04
69624;BME280;56843;52.020;5.670;2023-02-07T01:04:24;103813.09;;;9.71;62.16
69624;BME280;56843;52.020;5.670;2023-02-07T01:05:54;103812.03;;;9.72;62.14
69624;BME280;56843;52.020;5.670;2023-02-07T01:07:25;103814.72;;;9.72;62.20
69624;BME280;56843;52.020;5.670;2023-02-07T01:08:59;103808.31;;;9.73;61.97
69624;BME280;56843;52.020;5.670;2023-02-07T01:10:31;103800.56;;;9.71;62.18
69624;BME280;56843;52.020;5.670;2023-02-07T01:12:02;103809.59;;;9.70;62.14
69624;BME280;56843;52.020;5.670;2023-02-07T01:13:33;103796.81;;;9.72;62.13
69624;BME280;56843;52.020;5.670;2023-02-07T01:15:03;103808.56;;;9.71;62.13
69624;BME280;56843;52.020;5.670;2023-02-07T01:16:36;103795.22;;;9.71;62.41
69624;BME280;56843;52.020;5.670;2023-02-07T01:18:07;103800.28;;;9.73;62.39
69624;BME280;56843;52.020;5.670;2023-02-07T01:19:37;103796.03;;;9.72;62.27
69624;BME280;56843;52.020;5.670;2023-02-07T01:21:19;103801.38;;;9.72;62.33
69624;BME280;56843;52.020;5.670;2023-02-07T01:22:49;103806.09;;;9.70;62.43
69624;BME280;56843;52.020;5.670;2023-02-07T01:24:20;103799.75;;;9.71;62.47
69624;BME280;56843;52.020;5.670;2023-02-07T01:25:50;103804.03;;;9.72;62.55
69624;BME280;56843;52.020;5.670;2023-02-07T01:27:22;103802.97;;;9.73;62.27
69624;BME280;56843;52.020;5.670;2023-02-07T01:28:54;103797.06;;;9.71;62.50
69624;BME280;56843;52.020;5.670;2023-02-07T01:30:24;103796.03;;;9.72;62.85
69624;BME280;56843;52.020;5.670;2023-02-07T01:31:55;103791.47;;;9.72;62.84
69624;BME280;56843;52.020;5.670;2023-02-07T01:33:25;103798.69;;;9.72;62.60
69624;BME280;56843;52.020;5.670;2023-02-07T01:34:55;103812.81;;;9.72;62.59
69624;BME280;56843;52.020;5.670;2023-02-07T01:36:28;103796.81;;;9.72;62.78
69624;BME280;56843;52.020;5.670;2023-02-07T01:37:59;103803.78;;;9.73;62.66
69624;BME280;56843;52.020;5.670;2023-02-07T01:39:31;103801.94;;;9.74;62.85
69624;BME280;56843;52.020;5.670;2023-02-07T01:41:02;103801.94;;;9.74;62.73
69624;BME280;56843;52.020;5.670;2023-02-07T01:42:33;103800.28;;;9.73;62.96
69624;BME280;56843;52.020;5.670;2023-02-07T01:45:57;103819.47;;;9.70;62.88
69624;BME280;56843;52.020;5.670;2023-02-07T01:47:28;103820.84;;;9.72;63.01
69624;BME280;56843;52.020;5.670;2023-02-07T01:49:04;103820.63;;;9.74;62.79
69624;BME280;56843;52.020;5.670;2023-02-07T01:50:36;103816.31;;;9.73;62.99
69624;BME280;56843;52.020;5.670;2023-02-07T01:52:10;103802.16;;;9.72;62.81
69624;BME280;56843;52.020;5.670;2023-02-07T01:53:41;103802.97;;;9.73;62.85
69624;BME280;56843;52.020;5.670;2023-02-07T01:55:17;103803.22;;;9.71;63.22
69624;BME280;56843;52.020;5.670;2023-02-07T01:56:56;103809.38;;;9.72;63.08
69624;BME280;56843;52.020;5.670;2023-02-07T01:58:28;103813.91;;;9.71;63.09
69624;BME280;56843;52.020;5.670;2023-02-07T01:59:59;103812.03;;;9.72;62.78
69624;BME280;56843;52.020;5.670;2023-02-07T02:03:24;103810.09;;;9.67;63.17
69624;BME280;56843;52.020;5.670;2023-02-07T02:04:55;103818.41;;;9.71;63.13
69624;BME280;56843;52.020;5.670;2023-02-07T02:06:29;103820.28;;;9.70;63.10
69624;BME280;56843;52.020;5.670;2023-02-07T02:08:01;103809.59;;;9.70;63.02
69624;BME280;56843;52.020;5.670;2023-02-07T02:09:32;103811.22;;;9.71;63.17
69624;BME280;56843;52.020;5.670;2023-02-07T02:13:49;103814.38;;;9.68;63.28
69624;BME280;56843;52.020;5.670;2023-02-07T02:15:48;103810.66;;;9.69;63.37
69624;BME280;56843;52.020;5.670;2023-02-07T02:23:09;103818.88;;;9.68;63.21
69624;BME280;56843;52.020;5.670;2023-02-07T02:32:51;103827.41;;;9.65;63.26
69624;BME280;56843;52.020;5.670;2023-02-07T02:35:29;103823.59;;;9.60;63.44
69624;BME280;56843;52.020;5.670;2023-02-07T02:36:32;103819.31;;;9.59;63.48
69624;BME280;56843;52.020;5.670;2023-02-07T02:38:18;103819.06;;;9.61;63.51
69624;BME280;56843;52.020;5.670;2023-02-07T02:40:25;103826.84;;;9.63;63.33
69624;BME280;56843;52.020;5.670;2023-02-07T02:42:07;103826.28;;;9.60;63.46
69624;BME280;56843;52.020;5.670;2023-02-07T02:43:48;103826.03;;;9.62;63.47
69624;BME280;56843;52.020;5.670;2023-02-07T02:45:28;103835.88;;;9.61;63.54
69624;BME280;56843;52.020;5.670;2023-02-07T02:47:02;103822.53;;;9.61;63.57
69624;BME280;56843;52.020;5.670;2023-02-07T02:48:34;103821.25;;;9.64;63.60
69624;BME280;56843;52.020;5.670;2023-02-07T02:50:10;103826.34;;;9.66;63.66
69624;BME280;56843;52.020;5.670;2023-02-07T02:51:41;103817.75;;;9.63;63.33
69624;BME280;56843;52.020;5.670;2023-02-07T02:53:13;103815.66;;;9.66;63.65
69624;BME280;56843;52.020;5.670;2023-02-07T02:54:43;103821.00;;;9.66;63.56
69624;BME280;56843;52.020;5.670;2023-02-07T02:56:28;103830.06;;;9.65;63.82
69624;BME280;56843;52.020;5.670;2023-02-07T02:58:27;103815.09;;;9.63;63.60
69624;BME280;56843;52.020;5.670;2023-02-07T03:03:36;103814.28;;;9.63;63.62
69624;BME280;56843;52.020;5.670;2023-02-07T03:07:02;103810.25;;;9.60;63.80
69624;BME280;56843;52.020;5.670;2023-02-07T03:09:01;103809.44;;;9.60;63.64
69624;BME280;56843;52.020;5.670;2023-02-07T03:10:55;103815.00;;;9.58;63.86
69624;BME280;56843;52.020;5.670;2023-02-07T03:16:51;103823.25;;;9.57;63.99
69624;BME280;56843;52.020;5.670;2023-02-07T03:18:26;103816.53;;;9.54;64.11
69624;BME280;56843;52.020;5.670;2023-02-07T03:20:08;103807.50;;;9.55;63.87
69624;BME280;56843;52.020;5.670;2023-02-07T03:21:45;103804.84;;;9.55;64.13
69624;BME280;56843;52.020;5.670;2023-02-07T03:23:21;103805.09;;;9.54;64.07
69624;BME280;56843;52.020;5.670;2023-02-07T03:24:56;103809.09;;;9.56;63.86
69624;BME280;56843;52.020;5.670;2023-02-07T03:26:31;103816.53;;;9.54;64.19
69624;BME280;56843;52.020;5.670;2023-02-07T03:28:03;103803.47;;;9.53;63.95
69624;BME280;56843;52.020;5.670;2023-02-07T03:29:35;103797.09;;;9.54;64.00
69624;BME280;56843;52.020;5.670;2023-02-07T03:31:09;103802.16;;;9.55;63.81
69624;BME280;56843;52.020;5.670;2023-02-07T03:32:50;103804.84;;;9.55;64.19
69624;BME280;56843;52.020;5.670;2023-02-07T03:34:37;103811.00;;;9.56;64.05
69624;BME280;56843;52.020;5.670;2023-02-07T03:36:48;103804.84;;;9.55;64.04
69624;BME280;56843;52.020;5.670;2023-02-07T03:38:23;103802.06;;;9.50;64.17
69624;BME280;56843;52.020;5.670;2023-02-07T03:39:54;103794.63;;;9.52;64.06
69624;BME280;56843;52.020;5.670;2023-02-07T03:41:47;103801.09;;;9.56;64.06
69624;BME280;56843;52.020;5.670;2023-02-07T03:43:23;103798.94;;;9.53;64.17
69624;BME280;56843;52.020;5.670;2023-02-07T03:44:57;103794.63;;;9.52;64.21
69624;BME280;56843;52.020;5.670;2023-02-07T03:46:33;103797.09;;;9.54;64.08
69624;BME280;56843;52.020;5.670;2023-02-07T03:48:04;103801.59;;;9.53;64.21
69624;BME280;56843;52.020;5.670;2023-02-07T03:49:36;103795.19;;;9.54;64.20
69624;BME280;56843;52.020;5.670;2023-02-07T03:51:07;103797.66;;;9.56;64.38
69624;BME280;56843;52.020;5.670;2023-02-07T03:52:37;103797.88;;;9.54;64.41
69624;BME280;56843;52.020;5.670;2023-02-07T03:54:08;103808.53;;;9.54;64.24
69624;BME280;56843;52.020;5.670;2023-02-07T03:55:39;103814.94;;;9.53;64.32
69624;BME280;56843;52.020;5.670;2023-02-07T03:57:10;103806.94;;;9.53;64.38
69624;BME280;56843;52.020;5.670;2023-02-07T03:58:40;103801.59;;;9.53;64.41
69624;BME280;56843;52.020;5.670;2023-02-07T04:00:11;103794.16;;;9.55;64.18
69624;BME280;56843;52.020;5.670;2023-02-07T04:01:46;103790.59;;;9.50;63.20
69624;BME280;56843;52.020;5.670;2023-02-07T04:03:16;103786.88;;;9.34;61.43
69624;BME280;56843;52.020;5.670;2023-02-07T04:04:47;103793.72;;;9.14;60.14
69624;BME280;56843;52.020;5.670;2023-02-07T04:06:18;103789.19;;;8.86;59.30
69624;BME280;56843;52.020;5.670;2023-02-07T04:07:49;103790.78;;;8.59;58.87
69624;BME280;56843;52.020;5.670;2023-02-07T04:09:19;103796.41;;;8.34;58.83
69624;BME280;56843;52.020;5.670;2023-02-07T04:11:02;103795.97;;;8.14;58.75
69624;BME280;56843;52.020;5.670;2023-02-07T04:12:32;103799.69;;;7.90;58.52
69624;BME280;56843;52.020;5.670;2023-02-07T04:14:03;103797.34;;;7.70;58.18
69624;BME280;56843;52.020;5.670;2023-02-07T04:15:33;103791.31;;;7.52;58.13
69624;BME280;56843;52.020;5.670;2023-02-07T04:17:04;103784.47;;;7.32;57.89
69624;BME280;56843;52.020;5.670;2023-02-07T04:18:34;103790.66;;;7.15;57.73
69624;BME280;56843;52.020;5.670;2023-02-07T04:20:05;103801.91;;;6.99;57.74
69624;BME280;56843;52.020;5.670;2023-02-07T04:21:36;103786.81;;;6.81;57.56
69624;BME280;56843;52.020;5.670;2023-02-07T04:23:07;103788.81;;;6.67;57.68
69624;BME280;56843;52.020;5.670;2023-02-07T04:24:37;103791.84;;;6.53;57.74
69624;BME280;56843;52.020;5.670;2023-02-07T04:26:07;103788.31;;;6.41;57.79
69624;BME280;56843;52.020;5.670;2023-02-07T04:27:38;103789.84;;;6.30;57.97
69624;BME280;56843;52.020;5.670;2023-02-07T04:29:09;103793.00;;;6.21;57.98
69624;BME280;56843;52.020;5.670;2023-02-07T04:30:39;103796.63;;;6.08;57.98
69624;BME280;56843;52.020;5.670;2023-02-07T04:32:10;103788.56;;;5.97;58.40
69624;BME280;56843;52.020;5.670;2023-02-07T04:33:40;103791.81;;;5.99;58.92
69624;BME280;56843;52.020;5.670;2023-02-07T04:35:11;103783.78;;;6.05;59.88
69624;BME280;56843;52.020;5.670;2023-02-07T04:36:41;103784.88;;;6.16;60.28
69624;BME280;56843;52.020;5.670;2023-02-07T04:38:12;103782.09;;;6.29;60.61
69624;BME280;56843;52.020;5.670;2023-02-07T04:39:42;103767.06;;;6.41;60.94
69624;BME280;56843;52.020;5.670;2023-02-07T04:41:13;103771.41;;;6.53;61.23
69624;BME280;56843;52.020;5.670;2023-02-07T04:42:44;103770.44;;;6.66;61.25
69624;BME280;56843;52.020;5.670;2023-02-07T04:44:15;103775.81;;;6.78;61.19
69624;BME280;56843;52.020;5.670;2023-02-07T04:45:46;103779.34;;;6.90;61.40
69624;BME280;56843;52.020;5.670;2023-02-07T04:47:17;103784.13;;;6.99;61.37
69624;BME280;56843;52.020;5.670;2023-02-07T04:48:50;103772.34;;;7.07;61.29
69624;BME280;56843;52.020;5.670;2023-02-07T04:50:21;103775.88;;;7.19;61.47
69624;BME280;56843;52.020;5.670;2023-02-07T04:51:51;103767.56;;;7.27;61.42
69624;BME280;56843;52.020;5.670;2023-02-07T04:53:22;103771.75;;;7.34;61.47
69624;BME280;56843;52.020;5.670;2023-02-07T04:54:53;103778.34;;;7.44;61.55
69624;BME280;56843;52.020;5.670;2023-02-07T04:56:23;103783.56;;;7.50;61.46
69624;BME280;56843;52.020;5.670;2023-02-07T04:57:54;103781.59;;;7.57;61.43
69624;BME280;56843;52.020;5.670;2023-02-07T04:59:24;103778.84;;;7.64;61.38
69624;BME280;56843;52.020;5.670;2023-02-07T05:00:55;103774.44;;;7.69;61.47
69624;BME280;56843;52.020;5.670;2023-02-07T05:02:25;103780.72;;;7.75;61.47
69624;BME280;56843;52.020;5.670;2023-02-07T05:03:56;103778.16;;;7.80;61.46
69624;BME280;56843;52.020;5.670;2023-02-07T05:05:26;103782.78;;;7.84;61.34
69624;BME280;56843;52.020;5.670;2023-02-07T05:06:57;103775.94;;;7.88;61.39
69624;BME280;56843;52.020;5.670;2023-02-07T05:08:30;103773.41;;;7.93;61.33
69624;BME280;56843;52.020;5.670;2023-02-07T05:10:01;103770.88;;;7.98;61.35
69624;BME280;56843;52.020;5.670;2023-02-07T05:11:31;103770.38;;;8.01;61.18
69624;BME280;56843;52.020;5.670;2023-02-07T05:13:02;103773.41;;;8.05;61.34
69624;BME280;56843;52.020;5.670;2023-02-07T05:14:32;103776.97;;;8.10;61.22
69624;BME280;56843;52.020;5.670;2023-02-07T05:16:03;103772.22;;;8.12;61.28
69624;BME280;56843;52.020;5.670;2023-02-07T05:17:34;103772.59;;;8.16;61.12
69624;BME280;56843;52.020;5.670;2023-02-07T05:19:05;103773.97;;;8.19;61.05
69624;BME280;56843;52.020;5.670;2023-02-07T05:20:35;103781.47;;;8.22;61.02
69624;BME280;56843;52.020;5.670;2023-02-07T05:22:06;103781.00;;;8.25;60.93
69624;BME280;56843;52.020;5.670;2023-02-07T05:23:36;103781.59;;;8.27;61.07
69624;BME280;56843;52.020;5.670;2023-02-07T05:25:07;103792.81;;;8.29;60.98
69624;BME280;56843;52.020;5.670;2023-02-07T05:26:37;103782.72;;;8.31;60.92
69624;BME280;56843;52.020;5.670;2023-02-07T05:28:08;103787.84;;;8.32;60.88
69624;BME280;56843;52.020;5.670;2023-02-07T05:29:39;103796.16;;;8.36;60.85
69624;BME280;56843;52.020;5.670;2023-02-07T05:31:09;103789.81;;;8.37;60.77
69624;BME280;56843;52.020;5.670;2023-02-07T05:32:40;103789.31;;;8.40;60.73
69624;BME280;56843;52.020;5.670;2023-02-07T05:34:43;103801.03;;;8.39;60.77
69624;BME280;56843;52.020;5.670;2023-02-07T05:36:13;103797.88;;;8.42;60.83
69624;BME280;56843;52.020;5.670;2023-02-07T05:37:44;103794.19;;;8.43;60.81
69624;BME280;56843;52.020;5.670;2023-02-07T05:39:14;103795.00;;;8.43;60.71
69624;BME280;56843;52.020;5.670;2023-02-07T05:40:46;103791.84;;;8.46;60.73
69624;BME280;56843;52.020;5.670;2023-02-07T05:42:17;103796.16;;;8.47;60.54
69624;BME280;56843;52.020;5.670;2023-02-07T05:43:48;103796.16;;;8.47;60.37
69624;BME280;56843;52.020;5.670;2023-02-07T05:45:19;103803.66;;;8.50;60.37
69624;BME280;56843;52.020;5.670;2023-02-07T05:46:50;103794.88;;;8.50;60.48
69624;BME280;56843;52.020;5.670;2023-02-07T05:48:21;103806.09;;;8.52;60.15
69624;BME280;56843;52.020;5.670;2023-02-07T05:49:51;103803.44;;;8.52;60.26
69624;BME280;56843;52.020;5.670;2023-02-07T05:51:22;103811.19;;;8.53;60.21
69624;BME280;56843;52.020;5.670;2023-02-07T05:52:53;103808.50;;;8.53;60.15
69624;BME280;56843;52.020;5.670;2023-02-07T05:54:23;103812.00;;;8.54;60.08
69624;BME280;56843;52.020;5.670;2023-02-07T05:55:54;103816.50;;;8.53;60.10
69624;BME280;56843;52.020;5.670;2023-02-07T05:57:24;103815.47;;;8.54;60.11
69624;BME280;56843;52.020;5.670;2023-02-07T05:58:55;103816.25;;;8.55;60.10
69624;BME280;56843;52.020;5.670;2023-02-07T06:00:26;103819.75;;;8.55;59.96
69624;BME280;56843;52.020;5.670;2023-02-07T06:01:56;103834.69;;;8.56;60.07
69624;BME280;56843;52.020;5.670;2023-02-07T06:03:27;103834.69;;;8.56;59.95
69624;BME280;56843;52.020;5.670;2023-02-07T06:04:57;103831.78;;;8.58;59.98
69624;BME280;56843;52.020;5.670;2023-02-07T06:06:28;103829.13;;;8.58;59.80
69624;BME280;56843;52.020;5.670;2023-02-07T06:07:59;103842.19;;;8.59;60.02
69624;BME280;56843;52.020;5.670;2023-02-07T06:09:29;103839.53;;;8.59;60.07
69624;BME280;56843;52.020;5.670;2023-02-07T06:11:00;103840.13;;;8.61;59.90
69624;BME280;56843;52.020;5.670;2023-02-07T06:12:31;103830.28;;;8.62;59.88
69624;BME280;56843;52.020;5.670;2023-02-07T06:14:01;103834.59;;;8.63;59.53
69624;BME280;56843;52.020;5.670;2023-02-07T06:15:34;103827.63;;;8.62;59.61
69624;BME280;56843;52.020;5.670;2023-02-07T06:17:05;103831.94;;;8.63;59.72
69624;BME280;56843;52.020;5.670;2023-02-07T06:18:37;103830.88;;;8.64;59.60
69624;BME280;56843;52.020;5.670;2023-02-07T06:20:08;103826.81;;;8.61;59.55
69624;BME280;56843;52.020;5.670;2023-02-07T06:21:39;103833.53;;;8.64;59.51
69624;BME280;56843;52.020;5.670;2023-02-07T06:23:10;103833.53;;;8.64;59.42
69624;BME280;56843;52.020;5.670;2023-02-07T06:24:42;103834.91;;;8.66;59.40
69624;BME280;56843;52.020;5.670;2023-02-07T06:26:12;103825.31;;;8.65;59.37
69624;BME280;56843;52.020;5.670;2023-02-07T06:27:43;103832.25;;;8.66;59.70
69624;BME280;56843;52.020;5.670;2023-02-07T06:29:14;103830.41;;;8.67;59.41
69624;BME280;56843;52.020;5.670;2023-02-07T06:30:49;103827.50;;;8.68;59.31
69624;BME280;56843;52.020;5.670;2023-02-07T06:32:20;103830.41;;;8.67;59.29
69624;BME280;56843;52.020;5.670;2023-02-07T06:33:51;103834.66;;;8.68;59.29
69624;BME280;56843;52.020;5.670;2023-02-07T06:35:21;103833.88;;;8.67;59.25
69624;BME280;56843;52.020;5.670;2023-02-07T06:36:52;103834.09;;;8.66;59.21
69624;BME280;56843;52.020;5.670;2023-02-07T06:38:23;103836.75;;;8.66;59.08
69624;BME280;56843;52.020;5.670;2023-02-07T06:39:54;103840.81;;;8.68;59.36
69624;BME280;56843;52.020;5.670;2023-02-07T06:41:25;103834.66;;;8.68;59.17
69624;BME280;56843;52.020;5.670;2023-02-07T06:42:55;103844.88;;;8.71;59.31
69624;BME280;56843;52.020;5.670;2023-02-07T06:44:28;103840.94;;;8.73;59.32
69624;BME280;56843;52.020;5.670;2023-02-07T06:45:59;103840.22;;;8.78;59.47
69624;BME280;56843;52.020;5.670;2023-02-07T06:47:29;103840.22;;;8.78;59.32
69624;BME280;56843;52.020;5.670;2023-02-07T06:49:00;103841.25;;;8.77;59.48
69624;BME280;56843;52.020;5.670;2023-02-07T06:50:31;103848.78;;;8.80;59.54
69624;BME280;56843;52.020;5.670;2023-02-07T06:52:01;103836.03;;;8.82;59.59
69624;BME280;56843;52.020;5.670;2023-02-07T06:53:32;103836.59;;;8.84;59.51
69624;BME280;56843;52.020;5.670;2023-02-07T06:55:03;103843.31;;;8.86;59.72
69624;BME280;56843;52.020;5.670;2023-02-07T06:56:33;103847.69;;;8.93;59.85
69624;BME280;56843;52.020;5.670;2023-02-07T06:58:05;103844.56;;;8.96;60.18
69624;BME280;56843;52.020;5.670;2023-02-07T06:59:36;103847.56;;;8.99;59.85
69624;BME280;56843;52.020;5.670;2023-02-07T07:01:07;103845.47;;;9.01;59.59
69624;BME280;56843;52.020;5.670;2023-02-07T07:02:37;103856.47;;;9.05;59.80
69624;BME280;56843;52.020;5.670;2023-02-07T07:04:08;103860.53;;;9.07;59.39
69624;BME280;56843;52.020;5.670;2023-02-07T07:05:38;103859.47;;;9.08;59.46
69624;BME280;56843;52.020;5.670;2023-02-07T07:07:09;103861.09;;;9.09;59.33
69624;BME280;56843;52.020;5.670;2023-02-07T07:08:40;103861.66;;;9.11;59.16
69624;BME280;56843;52.020;5.670;2023-02-07T07:10:11;103857.72;;;9.14;59.13
69624;BME280;56843;52.020;5.670;2023-02-07T07:11:42;103869.41;;;9.13;58.90
69624;BME280;56843;52.020;5.670;2023-02-07T07:13:13;103869.97;;;9.15;58.75
69624;BME280;56843;52.020;5.670;2023-02-07T07:14:44;103861.75;;;9.16;59.19
69624;BME280;56843;52.020;5.670;2023-02-07T07:16:15;103859.88;;;9.17;58.75
69624;BME280;56843;52.020;5.670;2023-02-07T07:17:46;103876.44;;;9.19;58.73
69624;BME280;56843;52.020;5.670;2023-02-07T07:19:17;103869.28;;;9.19;58.62
69624;BME280;56843;52.020;5.670;2023-02-07T07:20:54;103862.66;;;9.22;58.40
69624;BME280;56843;52.020;5.670;2023-02-07T07:22:25;103868.81;;;9.22;58.56
69624;BME280;56843;52.020;5.670;2023-02-07T07:23:55;103869.63;;;9.23;58.35
69624;BME280;56843;52.020;5.670;2023-02-07T07:25:27;103862.41;;;9.23;58.30
69624;BME280;56843;52.020;5.670;2023-02-07T07:26:57;103867.75;;;9.23;58.72
69624;BME280;56843;52.020;5.670;2023-02-07T07:28:28;103862.19;;;9.25;58.25
69624;BME280;56843;52.020;5.670;2023-02-07T07:29:59;103864.84;;;9.25;58.08
69624;BME280;56843;52.020;5.670;2023-02-07T07:31:30;103867.53;;;9.25;58.13
69624;BME280;56843;52.020;5.670;2023-02-07T07:33:02;103864.84;;;9.25;57.97
69624;BME280;56843;52.020;5.670;2023-02-07T07:34:33;103869.38;;;9.24;57.97
69624;BME280;56843;52.020;5.670;2023-02-07T07:36:05;103871.78;;;9.26;57.95
69624;BME280;56843;52.020;5.670;2023-02-07T07:37:36;103867.28;;;9.26;57.62
69624;BME280;56843;52.020;5.670;2023-02-07T07:39:06;103862.97;;;9.25;57.85
69624;BME280;56843;52.020;5.670;2023-02-07T07:40:38;103866.81;;;9.29;57.74
69624;BME280;56843;52.020;5.670;2023-02-07T07:42:09;103861.22;;;9.31;57.83
69624;BME280;56843;52.020;5.670;2023-02-07T07:43:55;103852.66;;;9.29;57.77
69624;BME280;56843;52.020;5.670;2023-02-07T07:45:28;103854.84;;;9.32;57.70
69624;BME280;56843;52.020;5.670;2023-02-07T07:46:58;103856.72;;;9.31;57.65
69624;BME280;56843;52.020;5.670;2023-02-07T07:48:29;103852.19;;;9.32;57.60
69624;BME280;56843;52.020;5.670;2023-02-07T07:50:00;103860.75;;;9.34;57.42
69624;BME280;56843;52.020;5.670;2023-02-07T07:51:30;103865.03;;;9.35;57.54
69624;BME280;56843;52.020;5.670;2023-02-07T07:53:01;103863.66;;;9.32;57.38
69624;BME280;56843;52.020;5.670;2023-02-07T07:54:33;103870.34;;;9.35;57.29
69624;BME280;56843;52.020;5.670;2023-02-07T07:56:04;103872.00;;;9.36;57.19
69624;BME280;56843;52.020;5.670;2023-02-07T07:57:35;103862.59;;;9.33;57.25
69624;BME280;56843;52.020;5.670;2023-02-07T07:59:06;103869.53;;;9.34;57.10
69624;BME280;56843;52.020;5.670;2023-02-07T08:00:36;103873.03;;;9.35;57.16
69624;BME280;56843;52.020;5.670;2023-02-07T08:02:11;103872.22;;;9.34;57.20
69624;BME280;56843;52.020;5.670;2023-02-07T08:03:42;103871.66;;;9.32;57.10
69624;BME280;56843;52.020;5.670;2023-02-07T08:05:12;103870.59;;;9.33;57.00
69624;BME280;56843;52.020;5.670;2023-02-07T08:06:43;103864.22;;;9.34;57.12
69624;BME280;56843;52.020;5.670;2023-02-07T08:08:17;103869.78;;;9.33;57.09
69624;BME280;56843;52.020;5.670;2023-02-07T08:09:49;103860.41;;;9.30;56.99
69624;BME280;56843;52.020;5.670;2023-02-07T08:11:20;103871.44;;;9.34;57.18
69624;BME280;56843;52.020;5.670;2023-02-07T08:12:51;103870.03;;;9.31;56.96
69624;BME280;56843;52.020;5.670;2023-02-07T08:14:22;103875.69;;;9.35;57.06
69624;BME280;56843;52.020;5.670;2023-02-07T08:15:53;103870.59;;;9.33;56.92
69624;BME280;56843;52.020;5.670;2023-02-07T08:17:23;103873.28;;;9.33;56.90
69624;BME280;56843;52.020;5.670;2023-02-07T08:18:54;103859.13;;;9.33;56.88
69624;BME280;56843;52.020;5.670;2023-02-07T08:20:24;103862.84;;;9.32;56.67
69624;BME280;56843;52.020;5.670;2023-02-07T08:21:55;103872.22;;;9.34;56.46
69624;BME280;56843;52.020;5.670;2023-02-07T08:23:26;103862.03;;;9.31;56.61
69624;BME280;56843;52.020;5.670;2023-02-07T08:24:56;103863.66;;;9.32;56.80
69624;BME280;56843;52.020;5.670;2023-02-07T08:26:27;103873.03;;;9.35;56.69
69624;BME280;56843;52.020;5.670;2023-02-07T08:27:57;103867.69;;;9.35;56.72
69624;BME280;56843;52.020;5.670;2023-02-07T08:29:28;103867.69;;;9.35;56.80
69624;BME280;56843;52.020;5.670;2023-02-07T08:31:04;103868.25;;;9.37;56.73
69624;BME280;56843;52.020;5.670;2023-02-07T08:32:35;103863.75;;;9.37;56.85
69624;BME280;56843;52.020;5.670;2023-02-07T08:34:05;103860.03;;;9.38;56.78
69624;BME280;56843;52.020;5.670;2023-02-07T08:35:36;103857.13;;;9.40;56.90
69624;BME280;56843;52.020;5.670;2023-02-07T08:37:07;103859.06;;;9.44;56.68
69624;BME280;56843;52.020;5.670;2023-02-07T08:38:38;103865.78;;;9.47;56.84
69624;BME280;56843;52.020;5.670;2023-02-07T08:40:10;103853.84;;;9.49;56.95